createdAt,value
2022-08-17T00:01:51.776Z,25.45
2022-08-17T00:04:22.541Z,25.45
2022-08-17T00:06:53.388Z,25.43
2022-08-17T00:09:23.629Z,25.44
2022-08-17T00:12:34.882Z,25.43
2022-08-17T00:14:43.836Z,25.48
2022-08-17T00:17:13.867Z,25.53
2022-08-17T00:19:44.465Z,25.59
2022-08-17T00:22:32.890Z,25.67
2022-08-17T00:25:10.973Z,25.75
2022-08-17T00:27:42.172Z,25.82
2022-08-17T00:30:15.535Z,25.88
2022-08-17T00:33:12.354Z,25.91
2022-08-17T00:35:40.895Z,25.90
2022-08-17T00:38:11.728Z,25.90
2022-08-17T00:40:44.836Z,25.88
2022-08-17T00:43:21.642Z,25.87
2022-08-17T00:45:52.024Z,25.89
2022-08-17T00:48:28.836Z,25.93
2022-08-17T00:51:24.065Z,25.99
2022-08-17T00:54:13.328Z,26.02
2022-08-17T00:57:12.770Z,26.09
2022-08-17T01:00:02.599Z,26.17
2022-08-17T01:02:42.652Z,26.23
2022-08-17T01:05:26.347Z,26.33
2022-08-17T01:07:58.739Z,26.39
2022-08-17T01:10:59.609Z,26.49
2022-08-17T01:13:29.087Z,26.60
2022-08-17T01:16:21.943Z,26.69
2022-08-17T01:18:54.928Z,26.79
2022-08-17T01:21:57.524Z,26.89
2022-08-17T01:24:27.800Z,26.97
2022-08-17T01:26:57.937Z,27.00
2022-08-17T01:29:32.090Z,27.08
2022-08-17T01:32:06.820Z,27.12
2022-08-17T01:34:42.814Z,27.14
2022-08-17T01:37:16.718Z,27.20
2022-08-17T01:39:59.625Z,27.25
2022-08-17T01:42:45.555Z,27.30
2022-08-17T01:45:28.775Z,27.38
2022-08-17T01:47:59.129Z,27.41
2022-08-17T01:50:42.284Z,27.44
2022-08-17T01:53:41.135Z,27.44
2022-08-17T01:56:15.866Z,27.46
2022-08-17T01:58:47.018Z,27.50
2022-08-17T02:01:24.762Z,27.56
2022-08-17T02:03:59.778Z,27.64
2022-08-17T02:06:54.083Z,27.73
2022-08-17T02:09:30.186Z,27.78
2022-08-17T02:12:39.454Z,27.80
2022-08-17T02:15:08.165Z,27.75
2022-08-17T02:17:55.797Z,27.71
2022-08-17T02:20:49.145Z,27.71
2022-08-17T02:23:47.118Z,27.68
2022-08-17T02:26:25.494Z,27.71
2022-08-17T02:29:04.902Z,27.73
2022-08-17T02:31:40.651Z,27.80
2022-08-17T02:34:19.060Z,27.83
2022-08-17T02:36:49.210Z,27.83
2022-08-17T02:39:32.426Z,27.85
2022-08-17T02:42:13.990Z,27.92
2022-08-17T02:47:39.847Z,28.02
2022-08-17T02:50:11.793Z,28.06
2022-08-17T02:52:44.151Z,28.06
2022-08-17T02:55:20.747Z,28.07
2022-08-17T02:57:51.849Z,28.06
2022-08-17T03:00:35.301Z,28.05
2022-08-17T03:03:07.634Z,28.02
2022-08-17T03:05:43.720Z,28.05
2022-08-17T03:08:14.226Z,28.09
2022-08-17T03:10:46.358Z,28.12
2022-08-17T03:13:17.005Z,28.17
2022-08-17T03:15:49.678Z,28.20
2022-08-17T03:18:25.627Z,28.21
2022-08-17T03:20:59.716Z,28.22
2022-08-17T03:23:30.518Z,28.21
2022-08-17T03:26:02.223Z,28.18
2022-08-17T03:28:33.185Z,28.17
2022-08-17T03:31:04.325Z,28.16
2022-08-17T03:33:36.154Z,28.14
2022-08-17T03:36:06.848Z,28.17
2022-08-17T03:38:39.253Z,28.21
2022-08-17T03:41:10.175Z,28.27
2022-08-17T03:43:41.082Z,28.33
2022-08-17T03:46:38.571Z,28.34
2022-08-17T03:49:36.300Z,28.40
2022-08-17T03:52:40.731Z,28.44
2022-08-17T03:55:40.178Z,28.48
2022-08-17T03:58:17.204Z,28.54
2022-08-17T04:01:17.609Z,28.58
2022-08-17T04:04:05.541Z,28.60
2022-08-17T04:06:35.733Z,28.62
2022-08-17T04:09:11.259Z,28.57
2022-08-17T04:11:44.856Z,28.63
2022-08-17T04:14:25.754Z,28.65
2022-08-17T04:16:56.404Z,28.68
2022-08-17T04:19:26.375Z,28.72
2022-08-17T04:21:56.445Z,28.80
2022-08-17T04:24:27.163Z,28.85
2022-08-17T04:26:57.095Z,28.88
2022-08-17T04:29:54.422Z,28.95
2022-08-17T04:32:24.843Z,29.02
2022-08-17T04:35:10.369Z,29.08
2022-08-17T04:37:40.673Z,29.11
2022-08-17T04:40:28.291Z,29.13
2022-08-17T04:43:11.301Z,29.19
2022-08-17T04:45:51.319Z,29.21
2022-08-17T04:48:36.138Z,29.22
2022-08-17T04:51:19.852Z,29.23
2022-08-17T04:53:54.346Z,29.28
2022-08-17T04:56:27.800Z,29.32
2022-08-17T04:59:04.522Z,29.33
2022-08-17T05:01:38.679Z,29.35
2022-08-17T05:04:32.835Z,29.38
2022-08-17T05:07:05.777Z,29.37
2022-08-17T05:09:36.021Z,29.37
2022-08-17T05:12:07.529Z,29.36
2022-08-17T05:14:41.111Z,29.39
2022-08-17T05:17:11.565Z,29.39
2022-08-17T05:19:42.395Z,29.43
2022-08-17T05:22:12.688Z,29.43
2022-08-17T05:24:53.586Z,29.44
2022-08-17T05:27:24.383Z,29.43
2022-08-17T05:30:00.230Z,29.43
2022-08-17T05:32:38.525Z,29.40
2022-08-17T05:35:10.627Z,29.38
2022-08-17T05:37:41.290Z,29.37
2022-08-17T05:40:12.201Z,29.36
2022-08-17T05:42:42.872Z,29.41
2022-08-17T05:48:39.086Z,29.48
2022-08-17T05:51:18.417Z,29.47
2022-08-17T05:54:22.117Z,29.42
2022-08-17T05:57:02.978Z,29.40
2022-08-17T05:59:45.875Z,29.36
2022-08-17T06:02:35.530Z,29.39
2022-08-17T06:05:38.852Z,29.38
2022-08-17T06:08:51.509Z,29.48
2022-08-17T06:11:53.306Z,29.51
2022-08-17T06:14:51.387Z,29.50
2022-08-17T06:17:54.593Z,29.47
2022-08-17T06:20:27.500Z,29.50
2022-08-17T06:23:05.813Z,29.53
2022-08-17T06:25:49.862Z,29.56
2022-08-17T06:29:00.014Z,29.56
2022-08-17T06:31:40.044Z,29.60
2022-08-17T06:34:15.908Z,29.66
2022-08-17T06:36:54.195Z,29.71
2022-08-17T06:39:55.179Z,29.74
2022-08-17T06:43:02.818Z,29.77
2022-08-17T06:45:58.366Z,29.81
2022-08-17T06:48:49.200Z,29.83
2022-08-17T06:51:46.830Z,29.91
2022-08-17T06:54:28.930Z,29.98
2022-08-17T06:57:16.788Z,30.02
2022-08-17T06:59:56.746Z,30.04
2022-08-17T07:02:58.968Z,29.99
2022-08-17T07:05:38.762Z,29.95
2022-08-17T07:08:38.464Z,29.92
2022-08-17T07:11:15.408Z,29.89
2022-08-17T07:13:59.863Z,29.89
2022-08-17T07:16:51.169Z,29.91
2022-08-17T07:19:31.832Z,29.93
2022-08-17T07:22:51.923Z,29.96
2022-08-17T07:25:32.383Z,30.00
2022-08-17T07:28:07.012Z,30.06
2022-08-17T07:30:50.495Z,30.12
2022-08-17T07:33:30.138Z,30.14
2022-08-17T07:36:01.616Z,30.11
2022-08-17T07:38:36.837Z,30.11
2022-08-17T07:41:10.270Z,30.12
2022-08-17T07:43:43.360Z,30.08
2022-08-17T07:46:54.230Z,30.07
2022-08-17T07:49:43.576Z,30.07
2022-08-17T07:52:50.553Z,30.02
2022-08-17T07:55:51.881Z,30.00
2022-08-17T07:58:28.250Z,30.01
2022-08-17T08:01:16.096Z,30.04
2022-08-17T08:03:52.461Z,30.05
2022-08-17T08:06:26.068Z,30.05
2022-08-17T08:08:57.765Z,30.08
2022-08-17T08:11:40.131Z,30.08
2022-08-17T08:14:39.839Z,30.03
2022-08-17T08:17:10.764Z,29.98
2022-08-17T08:19:40.827Z,29.97
2022-08-17T08:22:20.013Z,29.96
2022-08-17T08:25:13.884Z,29.94
2022-08-17T08:28:12.525Z,29.92
2022-08-17T08:30:59.675Z,29.91
2022-08-17T08:33:47.937Z,29.88
2022-08-17T08:37:13.090Z,29.87
2022-08-17T08:40:02.495Z,29.90
2022-08-17T08:42:44.725Z,29.89
2022-08-17T08:45:35.165Z,29.85
2022-08-17T08:48:53.333Z,29.81
2022-08-17T08:55:56.108Z,29.72
2022-08-17T08:58:51.858Z,29.76
2022-08-17T09:01:38.023Z,29.79
2022-08-17T09:04:25.409Z,29.78
2022-08-17T09:07:18.796Z,29.78
2022-08-17T09:10:08.456Z,29.77
2022-08-17T09:12:58.069Z,29.75
2022-08-17T09:15:44.007Z,29.71
2022-08-17T09:19:00.040Z,29.67
2022-08-17T09:21:36.175Z,29.63
2022-08-17T09:24:44.257Z,29.60
2022-08-17T09:27:22.918Z,29.58
2022-08-17T09:30:04.058Z,29.54
2022-08-17T09:43:26.941Z,29.40
2022-08-17T09:46:05.980Z,29.34
2022-08-17T09:49:25.065Z,29.31
2022-08-17T09:52:15.149Z,29.26
2022-08-17T09:54:49.603Z,29.21
2022-08-17T09:57:40.452Z,29.18
2022-08-17T10:00:48.518Z,29.16
2022-08-17T10:10:43.120Z,28.95
2022-08-17T10:13:53.455Z,28.89
2022-08-17T10:16:38.613Z,28.85
2022-08-17T10:19:27.213Z,28.82
2022-08-17T10:22:35.346Z,28.77
2022-08-17T10:25:48.561Z,28.73
2022-08-17T10:32:35.548Z,28.64
2022-08-17T10:35:35.116Z,28.57
2022-08-17T10:38:47.289Z,28.54
2022-08-17T10:41:26.001Z,28.51
2022-08-17T10:44:40.456Z,28.48
2022-08-17T10:47:16.214Z,28.44
2022-08-17T10:49:50.733Z,28.42
2022-08-17T10:52:24.094Z,28.40
2022-08-17T10:54:58.959Z,28.37
2022-08-17T10:57:29.433Z,28.32
2022-08-17T11:00:03.199Z,28.30
2022-08-17T11:02:42.555Z,28.26
2022-08-17T11:05:29.837Z,28.24
2022-08-17T11:12:22.007Z,28.17
2022-08-17T11:18:32.452Z,28.13
2022-08-17T11:21:12.006Z,28.10
2022-08-17T11:24:00.294Z,28.08
2022-08-17T11:26:31.235Z,28.06
2022-08-17T11:38:42.871Z,27.97
2022-08-17T11:41:20.511Z,27.95
2022-08-17T11:44:22.040Z,27.93
2022-08-17T11:47:34.374Z,27.91
2022-08-17T11:50:46.720Z,27.91
2022-08-17T11:53:40.935Z,27.92
2022-08-17T11:56:31.303Z,27.89
2022-08-17T11:59:02.198Z,27.87
2022-08-17T12:01:53.107Z,27.89
2022-08-17T12:04:59.968Z,27.88
2022-08-17T12:08:11.232Z,27.85
2022-08-17T12:11:55.542Z,27.83
2022-08-17T12:15:07.983Z,27.81
2022-08-17T12:17:40.140Z,27.80
2022-08-17T12:20:42.709Z,27.79
2022-08-17T12:23:36.470Z,27.76
2022-08-17T12:26:16.455Z,27.75
2022-08-17T12:28:50.260Z,27.73
2022-08-17T12:31:26.482Z,27.71
2022-08-17T12:33:57.041Z,27.72
2022-08-17T12:36:29.743Z,27.70
2022-08-17T12:39:21.329Z,27.68
2022-08-17T12:43:25.951Z,27.67
2022-08-17T12:46:59.641Z,27.65
2022-08-17T12:49:50.025Z,27.64
2022-08-17T12:52:30.030Z,27.62
2022-08-17T12:55:27.013Z,27.62
2022-08-17T13:04:58.581Z,27.63
2022-08-17T13:07:56.571Z,27.60
2022-08-17T13:10:37.704Z,27.60
2022-08-17T13:13:46.474Z,27.61
2022-08-17T13:16:16.429Z,27.60
2022-08-17T13:18:54.572Z,27.61
2022-08-17T13:21:32.846Z,27.61
2022-08-17T13:24:18.438Z,27.60
2022-08-17T13:27:12.027Z,27.58
2022-08-17T13:29:59.841Z,27.58
2022-08-17T13:32:33.660Z,27.58
2022-08-17T13:35:42.103Z,27.57
2022-08-17T13:39:31.820Z,27.56
2022-08-17T13:42:35.323Z,27.55
2022-08-17T13:45:44.688Z,27.54
2022-08-17T13:48:18.028Z,27.54
2022-08-17T13:50:47.354Z,27.53
2022-08-17T13:53:56.073Z,27.53
2022-08-17T13:57:16.996Z,27.52
2022-08-17T14:00:42.465Z,27.50
2022-08-17T14:22:56.669Z,27.41
2022-08-17T14:25:37.622Z,27.42
2022-08-17T14:28:08.344Z,27.40
2022-08-17T14:30:39.106Z,27.38
2022-08-17T14:33:10.734Z,27.38
2022-08-17T14:35:41.586Z,27.39
2022-08-17T14:38:11.687Z,27.39
2022-08-17T14:40:42.273Z,27.37
2022-08-17T14:43:16.074Z,27.36
2022-08-17T14:52:32.649Z,27.33
2022-08-17T14:55:03.860Z,27.30
2022-08-17T14:57:34.976Z,27.28
2022-08-17T15:00:06.122Z,27.27
2022-08-17T15:02:55.017Z,27.28
2022-08-17T15:05:27.654Z,27.27
2022-08-17T15:07:57.838Z,27.25
2022-08-17T15:10:35.513Z,27.26
2022-08-17T15:16:41.787Z,27.21
2022-08-17T15:19:15.784Z,27.19
2022-08-17T15:22:50.532Z,27.19
2022-08-17T15:25:21.235Z,27.17
2022-08-17T15:27:52.690Z,27.16
2022-08-17T15:30:25.816Z,27.13
2022-08-17T15:32:58.093Z,27.12
2022-08-17T15:35:32.910Z,27.10
2022-08-17T15:38:11.584Z,27.10
2022-08-17T15:40:49.637Z,27.07
2022-08-17T15:43:27.326Z,27.05
2022-08-17T15:46:02.635Z,27.04
2022-08-17T15:48:55.773Z,27.01
2022-08-17T15:52:46.986Z,26.98
2022-08-17T15:55:20.864Z,26.94
2022-08-17T15:57:54.573Z,26.89
2022-08-17T16:10:38.900Z,26.86
2022-08-17T16:13:17.605Z,26.85
2022-08-17T16:15:57.112Z,26.83
2022-08-17T16:18:34.861Z,26.83
2022-08-17T16:21:25.944Z,26.80
2022-08-17T16:24:00.332Z,26.79
2022-08-17T16:26:32.774Z,26.78
2022-08-17T16:29:09.083Z,26.77
2022-08-17T16:31:39.865Z,26.75
2022-08-17T16:34:23.794Z,26.75
2022-08-17T16:37:47.077Z,26.72
2022-08-17T16:40:25.395Z,26.72
2022-08-17T16:42:58.775Z,26.71
2022-08-17T16:45:58.399Z,26.72
2022-08-17T16:50:12.136Z,26.71
2022-08-17T16:51:53.879Z,26.73
2022-08-17T16:54:23.946Z,26.72
2022-08-17T16:56:54.941Z,26.73
2022-08-17T16:59:39.431Z,26.73
2022-08-17T17:02:16.898Z,26.73
2022-08-17T17:05:03.874Z,26.70
2022-08-17T17:07:52.592Z,26.72
2022-08-17T17:10:26.614Z,26.72
2022-08-17T17:13:01.378Z,26.71
2022-08-17T17:15:48.535Z,26.70
2022-08-17T17:18:22.208Z,26.68
2022-08-17T17:20:56.762Z,26.69
2022-08-17T17:24:07.233Z,26.69
2022-08-17T17:26:58.799Z,26.67
2022-08-17T17:29:47.615Z,26.68
2022-08-17T17:32:54.011Z,26.68
2022-08-17T17:35:51.042Z,26.67
2022-08-17T17:38:31.916Z,26.67
2022-08-17T17:41:12.896Z,26.65
2022-08-17T17:43:51.407Z,26.65
2022-08-17T17:46:33.774Z,26.66
2022-08-17T17:49:08.210Z,26.64
2022-08-17T17:52:18.398Z,26.64
2022-08-17T17:54:55.621Z,26.62
2022-08-17T17:57:48.399Z,26.59
2022-08-17T18:00:26.033Z,26.59
2022-08-17T18:03:19.879Z,26.58
2022-08-17T18:06:10.488Z,26.56
2022-08-17T18:08:41.098Z,26.55
2022-08-17T18:12:00.316Z,26.53
2022-08-17T18:14:59.965Z,26.52
2022-08-17T18:17:31.177Z,26.52
2022-08-17T18:20:00.676Z,26.49
2022-08-17T18:22:32.298Z,26.49
2022-08-17T18:25:02.281Z,26.45
2022-08-17T18:27:38.508Z,26.44
2022-08-17T18:30:15.488Z,26.43
2022-08-17T18:32:51.243Z,26.40
2022-08-17T18:35:21.466Z,26.37
2022-08-17T18:37:55.365Z,26.33
2022-08-17T18:40:31.249Z,26.30
2022-08-17T18:43:44.055Z,26.29
2022-08-17T18:46:29.702Z,26.25
2022-08-17T18:49:09.045Z,26.22
2022-08-17T18:51:44.522Z,26.21
2022-08-17T18:54:26.208Z,26.19
2022-08-17T18:57:00.155Z,26.17
2022-08-17T18:59:36.419Z,26.15
2022-08-17T19:02:32.551Z,26.13
2022-08-17T19:05:27.582Z,26.10
2022-08-17T19:08:34.115Z,26.08
2022-08-17T19:11:25.754Z,26.07
2022-08-17T19:14:06.518Z,26.05
2022-08-17T19:16:42.066Z,26.01
2022-08-17T19:19:21.701Z,26.01
2022-08-17T19:22:28.798Z,25.98
2022-08-17T19:25:16.934Z,25.98
2022-08-17T19:28:25.782Z,25.95
2022-08-17T19:31:10.317Z,25.93
2022-08-17T19:33:40.850Z,25.93
2022-08-17T19:36:25.457Z,25.94
2022-08-17T19:39:26.406Z,25.94
2022-08-17T19:42:43.753Z,25.93
2022-08-17T19:45:37.179Z,25.91
2022-08-17T19:48:40.247Z,25.88
2022-08-17T19:51:29.466Z,25.88
2022-08-17T19:54:08.899Z,25.88
2022-08-17T19:56:44.861Z,25.86
2022-08-17T19:59:17.791Z,25.84
2022-08-17T20:02:01.597Z,25.83
2022-08-17T20:04:32.588Z,25.83
2022-08-17T20:07:09.418Z,25.82
2022-08-17T20:09:41.411Z,25.80
2022-08-17T20:12:16.689Z,25.78
2022-08-17T20:14:55.679Z,25.78
2022-08-17T20:17:34.258Z,25.77
2022-08-17T20:20:19.795Z,25.77
2022-08-17T20:23:01.648Z,25.73
2022-08-17T20:25:59.530Z,25.73
2022-08-17T20:28:35.603Z,25.70
2022-08-17T20:31:42.407Z,25.73
2022-08-17T20:34:36.932Z,25.71
2022-08-17T20:37:08.713Z,25.69
2022-08-17T20:39:46.989Z,25.68
2022-08-17T20:42:22.740Z,25.67
2022-08-17T20:45:22.773Z,25.63
2022-08-17T20:48:36.190Z,25.59
2022-08-17T20:50:58.125Z,25.56
2022-08-17T20:53:49.429Z,25.57
2022-08-17T20:56:45.282Z,25.53
2022-08-17T20:59:26.903Z,25.54
2022-08-17T21:02:18.108Z,25.54
2022-08-17T21:04:55.633Z,25.54
2022-08-17T21:07:43.483Z,25.51
2022-08-17T21:10:38.866Z,25.48
2022-08-17T21:13:17.831Z,25.46
2022-08-17T21:16:22.598Z,25.44
2022-08-17T21:19:11.579Z,25.41
2022-08-17T21:22:08.610Z,25.37
2022-08-17T21:24:53.294Z,25.35
2022-08-17T21:28:11.506Z,25.30
2022-08-17T21:30:44.727Z,25.23
2022-08-17T21:33:18.499Z,25.16
2022-08-17T21:36:17.385Z,25.13
2022-08-17T21:38:57.404Z,25.09
2022-08-17T21:41:35.604Z,25.08
2022-08-17T21:44:30.516Z,25.07
2022-08-17T21:47:19.853Z,25.05
2022-08-17T21:49:50.351Z,25.05
2022-08-17T21:52:23.837Z,25.01
2022-08-17T21:55:00.320Z,24.99
2022-08-17T21:57:31.979Z,24.97
2022-08-17T22:00:17.732Z,24.95
2022-08-17T22:02:57.003Z,24.93
2022-08-17T22:05:45.808Z,24.89
2022-08-17T22:08:28.392Z,24.89
2022-08-17T22:11:04.758Z,24.86
2022-08-17T22:13:39.931Z,24.86
2022-08-17T22:16:29.525Z,24.86
2022-08-17T22:19:03.468Z,24.85
2022-08-17T22:21:33.755Z,24.84
2022-08-17T22:24:19.177Z,24.84
2022-08-17T22:27:12.644Z,24.81
2022-08-17T22:29:49.499Z,24.82
2022-08-17T22:32:42.174Z,24.84
2022-08-17T22:35:20.180Z,24.84
2022-08-17T22:37:50.719Z,24.83
2022-08-17T22:40:30.269Z,24.84
2022-08-17T22:43:04.845Z,24.82
2022-08-17T22:45:46.767Z,24.80
2022-08-17T22:48:27.234Z,24.79
2022-08-17T22:51:16.531Z,24.76
2022-08-17T22:54:35.687Z,24.74
2022-08-17T22:57:25.165Z,24.69
2022-08-17T22:59:57.300Z,24.62
2022-08-17T23:02:33.238Z,24.59
2022-08-17T23:05:13.176Z,24.52
2022-08-17T23:07:44.813Z,24.40
2022-08-17T23:10:16.242Z,24.35
2022-08-17T23:12:48.326Z,24.28
2022-08-17T23:15:21.078Z,24.21
2022-08-17T23:17:51.292Z,24.13
2022-08-17T23:20:21.845Z,24.07
2022-08-17T23:22:53.072Z,24.03
2022-08-17T23:25:34.938Z,24.01
2022-08-17T23:28:07.626Z,23.99
2022-08-17T23:30:43.029Z,23.98
2022-08-17T23:33:35.478Z,24.00
2022-08-17T23:36:05.552Z,24.03
2022-08-17T23:38:35.553Z,24.05
2022-08-17T23:41:13.140Z,24.06
2022-08-17T23:43:46.127Z,24.08
2022-08-17T23:46:18.461Z,24.10
2022-08-17T23:48:48.905Z,24.11
2022-08-17T23:51:26.887Z,24.11
2022-08-17T23:54:08.320Z,24.15
2022-08-17T23:56:49.483Z,24.17
2022-08-17T23:59:23.818Z,24.18
